Terminal Aerodrome Forecast
Issued by NWS

Home | Current Version | Previous Version | Text Only | Print | Product List | Glossary On
Versions: 1 2 3 4 5 6 7 8 9 10 11 12 13 14 15 16 17 18 19 20 21 22 23 24 25 26 27 28 29 30 31 32 33 34 35 36 37 38 39
000
FTUS44 KHGX 280304 AAA
TAFLBX
TAF AMD
KLBX 280304Z 2803/2824 35014G20KT 6SM -RA BR OVC009
     FM280900 35013KT 3SM SHRA BR VCTS OVC009CB=

USA.gov is the U.S. government's official web portal to all federal, state and local government web resources and services.